• Join FlightAware (Why Join?)
  • Login
  • US Flag 
07:29AM EDT


 

Airport Tracker/Info


-or-


 

Live Flight TrackerFlight Track Log ✈ RPA4315 ✈ 24-Jun-2014 ✈ KORD - KPIT

Flight Track Log - Related Links

Times and Time Zones

All times are in EDT time to prevent confusion due to time zone crossing. See the RPA4315 flight status page for this flight to view local times or setup timezone preferences in your user account.

Time Position Orientation Groundspeed Altitude Reporting Facility
EDT Latitude Longitude Course Direction KTS MPH feet Rate Location/Type
02:21PM 41.9333 -87.9167 90° East 162 186 2,000  Level Chicago TRACON
02:22PM 41.9000 -87.8667 132° Southeast 230 265 4,000 1,380 Climbing Chicago TRACON
02:24PM 41.9500 -87.4887 90° East  Level FlightAware Approximate
02:24PM 41.8303 -87.7819 138° Southeast 273 314 5,100  Level Chicago Center
02:25PM 41.9489 -87.3511 95° East  Level FlightAware Approximate
02:25PM 41.7794 -87.6931 127° Southeast 284 327 8,900  Level Chicago Center
02:26PM 41.9392 -87.2140 95° East  Level FlightAware Approximate
02:26PM 41.7947 -87.5853 79° East 296 341 12,000  Level Chicago Center
02:27PM 41.9333 -87.0767 90° East  Level FlightAware Approximate
02:27PM 41.8297 -87.4661 68° East 317 365 14,800  Level Chicago Center
02:28PM 41.8642 -87.3486 68° East 335 386 16,900 1,740 Climbing Chicago Center
02:29PM 41.8936 -87.2311 71° East 365 420 18,400 1,680 Climbing Chicago Center
02:30PM 41.8814 -87.0836 96° East 390 449 20,400 2,220 Climbing Chicago Center
02:31PM 41.8669 -86.9022 96° East 403 464 23,100 2,100 Climbing Chicago Center
02:32PM 41.8539 -86.7475 96° East 415 478 24,800 1,560 Climbing Chicago Center
02:33PM 41.8414 -86.6028 97° East 426 490 26,400 1,440 Climbing Chicago Center
02:34PM 41.8264 -86.4411 97° East 431 496 27,900 1,200 Climbing Chicago Center
02:35PM 41.8083 -86.2417 97° East 446 513 29,000 480 Climbing Chicago Center
02:36PM 41.7922 -86.0633 97° East 479 551 29,000  Level Chicago Center
02:37PM 41.7744 -85.8786 97° East 494 568 29,000  Level Chicago Center
02:38PM 41.7567 -85.6947 97° East 495 570 29,000  Level Chicago Center
02:39PM 41.7408 -85.5094 96° East 494 568 29,000  Level Chicago Center
02:40PM 41.7219 -85.3153 97° East 500 575 29,000  Level Chicago Center
02:41PM 41.7025 -85.1258 98° East 504 580 29,000  Level Chicago Center
02:42PM 41.6831 -84.9397 98° East 505 581 29,000  Level Chicago Center
02:43PM 41.6683 -84.7928 98° East 503 579 29,000  Level Cleveland Center
02:44PM 41.6569 -84.6061 95° East 503 579 29,000  Level Cleveland Center
02:45PM 41.6444 -84.3861 94° East 498 573 29,000  Level Cleveland Center
02:46PM 41.6328 -84.2089 95° East 498 573 29,000  Level Cleveland Center
02:47PM 41.6219 -84.0244 94° East 500 575 29,000  Level Cleveland Center
02:48PM 41.6100 -83.8411 95° East 500 575 29,000  Level Cleveland Center
02:49PM 41.6153 -83.6200 88° East 501 577 29,000  Level Cleveland Center
02:50PM 41.6136 -83.4367 91° East 501 577 29,000  Level Cleveland Center
02:51PM 41.5853 -83.2589 102° East 495 570 29,000  Level Cleveland Center
02:52PM 41.5364 -83.0578 108° East 497 572 29,000  Level Cleveland Center
02:53PM 41.4928 -82.8814 108° East 497 572 29,000  Level Cleveland Center
02:54PM 41.4533 -82.7050 107° East 497 572 29,000  Level Cleveland Center
02:55PM 41.4231 -82.5258 103° East 496 571 29,000  Level Cleveland Center
02:57PM 41.3908 -82.3464 103° East 495 570 29,000  Level Cleveland Center
02:58PM 41.3586 -82.1700 104° East 492 566 29,000 -480 Level Cleveland Center
02:59PM 41.3167 -82.0022 108° East 489 563 28,100 -1,440 Descending Cleveland Center
03:00PM 41.2644 -81.8022 109° East 483 556 26,100 -1,740 Descending Cleveland Center
03:01PM 41.2222 -81.6400 109° East 473 544 24,500 -1,260 Descending Cleveland Center
03:02PM 41.1817 -81.4808 109° East 459 528 23,500 -1,620 Descending Cleveland Center
03:03PM 41.1422 -81.3328 109° East 451 519 21,200 -2,400 Descending Cleveland Center
03:04PM 41.0917 -81.1608 111° Southeast 431 496 18,600 -2,220 Descending Cleveland Center
03:05PM 41.0431 -81.0472 120° Southeast 412 474 16,700 -2,220 Descending Cleveland Center
03:06PM 40.9797 -80.8944 119° Southeast 395 455 14,100 -2,280 Descending Cleveland Center
03:07PM 40.9278 -80.7706 119° Southeast 389 448 12,100 -1,920 Descending Cleveland Center
03:08PM 40.8769 -80.6514 119° Southeast 375 432 10,100 -1,080 Descending Cleveland Center
03:09PM 40.8139 -80.5731 137° Southeast 315 362 9,900 -60 Descending Cleveland Center
03:10PM 40.7644 -80.4806 125° Southeast 308 354 10,000 -300 Climbing Cleveland Center
03:11PM 40.7058 -80.3747 126° Southeast 306 352 9,300 -1,140 Descending Cleveland Center
03:12PM 40.6600 -80.2903 126° Southeast 303 349 7,700 -1,560 Descending Cleveland Center
03:13PM 40.6147 -80.2072 126° Southeast 285 328 6,100 -1,140 Descending Cleveland Center
03:14PM 40.5897 -80.1178 110° East 260 299 5,400 -1,020 Descending Cleveland Center
03:15PM 40.5603 -80.0375 116° Southeast 225 259 4,000 -1,200 Descending Cleveland Center
03:16PM 40.5086 -80.0306 174° South 217 250 2,900 -480 Descending Cleveland Center
03:17PM 40.4967 -80.0961 257° West 202 232 3,000 -480 Climbing Cleveland Center
03:18PM 40.4986 -80.1681 272° West 176 203 2,000 -1,020 Descending Cleveland Center